createdAt,value
2016-10-18T00:00:30.013Z,930.18
2016-10-18T00:01:30.080Z,930.2
2016-10-18T00:02:30.131Z,930.24
2016-10-18T00:03:30.183Z,930.2
2016-10-18T00:04:30.265Z,930.26
2016-10-18T00:05:30.302Z,930.23
2016-10-18T00:06:30.352Z,930.23
2016-10-18T00:07:30.432Z,930.27
2016-10-18T00:08:30.486Z,930.27
2016-10-18T00:09:30.522Z,930.21
2016-10-18T00:10:30.582Z,930.19
2016-10-18T00:11:30.651Z,930.15
2016-10-18T00:12:30.690Z,930.2
2016-10-18T00:13:30.773Z,930.17
2016-10-18T00:14:30.811Z,930.19
2016-10-18T00:15:30.855Z,930.21
2016-10-18T00:16:30.931Z,930.22
2016-10-18T00:17:30.972Z,930.24
2016-10-18T00:18:31.012Z,930.26
2016-10-18T00:19:31.095Z,930.26
2016-10-18T00:20:31.133Z,930.3
2016-10-18T00:21:31.203Z,930.34
2016-10-18T00:22:31.253Z,930.38
2016-10-18T00:23:31.298Z,930.38
2016-10-18T00:24:31.346Z,930.45
2016-10-18T00:25:31.415Z,930.48
2016-10-18T00:26:31.482Z,930.49
2016-10-18T00:27:31.520Z,930.52
2016-10-18T00:28:31.586Z,930.57
2016-10-18T00:29:31.669Z,930.56
2016-10-18T00:30:31.700Z,930.56
2016-10-18T00:31:31.733Z,930.59
2016-10-18T00:32:31.792Z,930.54
2016-10-18T00:33:31.855Z,930.52
2016-10-18T00:34:31.922Z,930.57
2016-10-18T00:35:31.965Z,930.53
2016-10-18T00:36:32.037Z,930.55
2016-10-18T00:37:32.091Z,930.55
2016-10-18T00:38:32.128Z,930.53
2016-10-18T00:39:32.181Z,930.59
2016-10-18T00:40:32.230Z,930.55
2016-10-18T00:41:32.294Z,930.51
2016-10-18T00:42:32.364Z,930.54
2016-10-18T00:43:32.390Z,930.6
2016-10-18T00:44:32.474Z,930.61
2016-10-18T00:45:32.519Z,930.68
2016-10-18T00:46:32.577Z,930.72
2016-10-18T00:47:32.622Z,930.74
2016-10-18T00:48:32.677Z,930.78
2016-10-18T00:49:32.747Z,930.87
2016-10-18T00:50:32.791Z,930.91
2016-10-18T00:51:32.840Z,930.91
2016-10-18T00:52:32.892Z,930.95
2016-10-18T00:53:32.968Z,930.91
2016-10-18T00:54:33.009Z,930.94
2016-10-18T00:55:33.065Z,930.96
2016-10-18T00:56:33.140Z,930.99
2016-10-18T00:57:33.175Z,930.98
2016-10-18T00:58:33.233Z,931.04
2016-10-18T00:59:33.295Z,931.04
2016-10-18T01:00:33.331Z,931.12
2016-10-18T01:01:33.434Z,931.18
2016-10-18T01:02:33.435Z,931.15
2016-10-18T01:03:33.504Z,931.25
2016-10-18T01:04:33.567Z,931.28
2016-10-18T01:05:33.606Z,931.32
2016-10-18T01:06:33.657Z,931.36
2016-10-18T01:07:33.738Z,931.39
2016-10-18T01:08:33.776Z,931.45
2016-10-18T01:09:33.832Z,931.5
2016-10-18T01:10:33.877Z,931.58
2016-10-18T01:11:33.977Z,931.64
2016-10-18T01:12:33.996Z,931.67
2016-10-18T01:13:34.065Z,931.7
2016-10-18T01:14:34.111Z,931.72
2016-10-18T01:15:34.158Z,931.78
2016-10-18T01:16:34.216Z,931.81
2016-10-18T01:17:34.284Z,931.81
2016-10-18T01:18:34.340Z,931.84
2016-10-18T01:19:34.400Z,931.89
2016-10-18T01:20:34.440Z,931.9
2016-10-18T01:21:34.482Z,931.85
2016-10-18T01:22:34.543Z,931.93
2016-10-18T01:23:34.600Z,931.89
2016-10-18T01:24:34.643Z,931.95
2016-10-18T01:25:34.712Z,931.91
2016-10-18T01:26:34.748Z,931.92
2016-10-18T01:27:34.818Z,931.92
2016-10-18T01:28:34.864Z,931.95
2016-10-18T01:29:34.913Z,931.94
2016-10-18T01:30:34.983Z,931.98
2016-10-18T01:31:35.048Z,931.97
2016-10-18T01:32:35.080Z,932.01
2016-10-18T01:33:35.139Z,931.97
2016-10-18T01:34:35.231Z,931.97
2016-10-18T01:35:35.240Z,931.94
2016-10-18T01:36:35.307Z,931.93
2016-10-18T01:37:35.357Z,931.9
2016-10-18T01:38:35.402Z,931.84
2016-10-18T01:39:35.480Z,931.8
2016-10-18T01:40:35.508Z,931.77
2016-10-18T01:41:35.572Z,931.76
2016-10-18T01:42:35.644Z,931.76
2016-10-18T01:43:35.671Z,931.78
2016-10-18T01:44:35.725Z,931.74
2016-10-18T01:45:35.788Z,931.76
2016-10-18T01:46:35.849Z,931.76
2016-10-18T01:47:35.897Z,931.81
2016-10-18T01:48:35.993Z,931.75
2016-10-18T01:49:36.011Z,931.82
2016-10-18T01:50:36.071Z,931.76
2016-10-18T01:51:36.115Z,931.79
2016-10-18T01:52:36.157Z,931.68
2016-10-18T01:53:36.211Z,931.68
2016-10-18T01:54:36.277Z,931.69
2016-10-18T01:55:36.329Z,931.64
2016-10-18T01:56:36.422Z,931.63
2016-10-18T01:57:36.440Z,931.64
2016-10-18T01:58:36.487Z,931.63
2016-10-18T01:59:36.534Z,931.66
2016-10-18T02:00:36.585Z,931.69
2016-10-18T02:01:36.659Z,931.66
2016-10-18T02:02:36.693Z,931.64
2016-10-18T02:03:36.754Z,931.66
2016-10-18T02:04:36.804Z,931.69
2016-10-18T02:05:36.883Z,931.73
2016-10-18T02:06:36.929Z,931.72
2016-10-18T02:07:36.971Z,931.75
2016-10-18T02:08:37.038Z,931.78
2016-10-18T02:09:37.065Z,931.82
2016-10-18T02:10:37.145Z,931.8
2016-10-18T02:11:37.174Z,931.83
2016-10-18T02:12:37.231Z,931.83
2016-10-18T02:13:37.280Z,931.82
2016-10-18T02:14:37.347Z,931.8
2016-10-18T02:15:37.387Z,931.84
2016-10-18T02:16:37.459Z,931.85
2016-10-18T02:17:37.507Z,931.87
2016-10-18T02:18:37.545Z,931.88
2016-10-18T02:19:37.600Z,931.92
2016-10-18T02:20:37.665Z,931.92
2016-10-18T02:21:37.705Z,931.93
2016-10-18T02:22:37.771Z,931.83
2016-10-18T02:23:37.813Z,931.82
2016-10-18T02:24:37.896Z,931.82
2016-10-18T02:25:37.932Z,931.83
2016-10-18T02:26:37.984Z,931.91
2016-10-18T02:27:38.059Z,931.84
2016-10-18T02:28:38.081Z,931.88
2016-10-18T02:29:38.157Z,931.89
2016-10-18T02:30:38.191Z,931.92
2016-10-18T02:31:38.417Z,931.83
2016-10-18T02:32:38.301Z,931.87
2016-10-18T02:33:38.351Z,931.93
2016-10-18T02:34:38.432Z,931.89
2016-10-18T02:35:38.468Z,931.88
2016-10-18T02:36:38.509Z,931.85
2016-10-18T02:37:38.579Z,931.82
2016-10-18T02:38:38.632Z,931.85
2016-10-18T02:39:38.668Z,931.84
2016-10-18T02:40:38.741Z,931.81
2016-10-18T02:41:38.835Z,931.79
2016-10-18T02:42:38.842Z,931.71
2016-10-18T02:43:38.896Z,931.7
2016-10-18T02:44:38.939Z,931.64
2016-10-18T02:45:38.990Z,931.69
2016-10-18T02:46:39.060Z,931.72
2016-10-18T02:47:39.124Z,931.72
2016-10-18T02:48:39.166Z,931.74
2016-10-18T02:49:39.227Z,931.77
2016-10-18T02:50:39.256Z,931.74
2016-10-18T02:51:39.326Z,931.78
2016-10-18T02:52:39.381Z,931.8
2016-10-18T02:53:39.450Z,931.78
2016-10-18T02:54:39.499Z,931.73
2016-10-18T02:55:39.527Z,931.77
2016-10-18T02:56:39.593Z,931.76
2016-10-18T02:57:39.634Z,931.79
2016-10-18T02:58:39.705Z,931.8
2016-10-18T02:59:39.737Z,931.84
2016-10-18T03:00:39.794Z,931.86
2016-10-18T03:01:39.859Z,931.87
2016-10-18T03:02:39.934Z,931.88
2016-10-18T03:03:39.959Z,931.83
2016-10-18T03:04:40.017Z,931.93
2016-10-18T03:05:40.084Z,931.95
2016-10-18T03:06:40.125Z,931.92
2016-10-18T03:07:40.183Z,931.96
2016-10-18T03:08:40.239Z,931.89
2016-10-18T03:09:40.282Z,931.91
2016-10-18T03:10:40.337Z,931.92
2016-10-18T03:11:40.377Z,931.88
2016-10-18T03:12:40.440Z,931.92
2016-10-18T03:13:40.504Z,931.9
2016-10-18T03:14:40.553Z,931.89
2016-10-18T03:15:40.655Z,931.95
2016-10-18T03:16:40.647Z,931.87
2016-10-18T03:17:40.722Z,931.84
2016-10-18T03:18:40.749Z,931.85
2016-10-18T03:19:40.829Z,931.83
2016-10-18T03:20:40.857Z,931.76
2016-10-18T03:21:40.935Z,931.68
2016-10-18T03:22:40.991Z,931.69
2016-10-18T03:23:41.039Z,931.7
2016-10-18T03:24:41.072Z,931.72
2016-10-18T03:25:41.121Z,931.7
2016-10-18T03:26:41.184Z,931.73
2016-10-18T03:27:41.236Z,931.74
2016-10-18T03:28:41.286Z,931.75
2016-10-18T03:29:41.335Z,931.75
2016-10-18T03:30:41.388Z,931.84
2016-10-18T03:31:41.465Z,931.82
2016-10-18T03:32:41.497Z,931.83
2016-10-18T03:33:41.572Z,931.8
2016-10-18T03:34:41.612Z,931.83
2016-10-18T03:35:41.664Z,931.8
2016-10-18T03:36:41.733Z,931.81
2016-10-18T03:37:41.767Z,931.75
2016-10-18T03:38:41.835Z,931.77
2016-10-18T03:39:41.895Z,931.73
2016-10-18T03:40:41.942Z,931.74
2016-10-18T03:41:41.993Z,931.74
2016-10-18T03:42:42.019Z,931.74
2016-10-18T03:43:42.088Z,931.74
2016-10-18T03:44:42.127Z,931.74
2016-10-18T03:45:42.193Z,931.74
2016-10-18T03:46:42.234Z,931.73
2016-10-18T03:47:42.304Z,931.73
2016-10-18T03:48:42.352Z,931.69
2016-10-18T03:49:42.389Z,931.66
2016-10-18T03:50:42.467Z,931.67
2016-10-18T03:51:42.514Z,931.67
2016-10-18T03:52:42.562Z,931.64
2016-10-18T03:53:42.612Z,931.62
2016-10-18T03:54:42.655Z,931.58
2016-10-18T03:55:42.742Z,931.55
2016-10-18T03:56:42.771Z,931.5
2016-10-18T03:57:42.816Z,931.49
2016-10-18T03:58:42.865Z,931.46
2016-10-18T03:59:42.937Z,931.43
2016-10-18T04:00:43.003Z,931.45
2016-10-18T04:01:43.040Z,931.4
2016-10-18T04:02:43.084Z,931.35
2016-10-18T04:03:43.136Z,931.4
2016-10-18T04:04:43.199Z,931.36
2016-10-18T04:05:43.249Z,931.4
2016-10-18T04:06:43.331Z,931.37
2016-10-18T04:07:43.353Z,931.34
2016-10-18T04:08:43.416Z,931.34
2016-10-18T04:09:43.478Z,931.31
2016-10-18T04:10:43.516Z,931.32
2016-10-18T04:11:43.583Z,931.28
2016-10-18T04:12:43.623Z,931.21
2016-10-18T04:13:43.691Z,931.22
2016-10-18T04:14:43.730Z,931.14
2016-10-18T04:15:43.771Z,931.13
2016-10-18T04:16:43.845Z,931.11
2016-10-18T04:17:43.904Z,931.07
2016-10-18T04:18:43.938Z,931.04
2016-10-18T04:19:43.989Z,931
2016-10-18T04:20:44.045Z,930.9
2016-10-18T04:21:44.110Z,930.96
2016-10-18T04:22:44.137Z,930.97
2016-10-18T04:23:44.218Z,930.94
2016-10-18T04:24:44.255Z,930.91
2016-10-18T04:25:44.323Z,930.94
2016-10-18T04:26:44.376Z,930.92
2016-10-18T04:27:44.421Z,930.91
2016-10-18T04:28:44.467Z,930.96
2016-10-18T04:29:44.510Z,930.95
2016-10-18T04:30:44.563Z,930.94
2016-10-18T04:31:44.628Z,930.87
2016-10-18T04:32:44.691Z,930.87
2016-10-18T04:33:44.735Z,930.81
2016-10-18T04:34:44.788Z,930.76
2016-10-18T04:35:44.831Z,930.77
2016-10-18T04:36:44.930Z,930.75
2016-10-18T04:37:44.952Z,930.74
2016-10-18T04:38:45.015Z,930.76
2016-10-18T04:39:45.057Z,930.73
2016-10-18T04:40:45.097Z,930.69
2016-10-18T04:41:45.153Z,930.66
2016-10-18T04:42:45.203Z,930.64
2016-10-18T04:43:45.255Z,930.63
2016-10-18T04:44:45.335Z,930.55
2016-10-18T04:45:45.373Z,930.53
2016-10-18T04:46:45.427Z,930.55
2016-10-18T04:47:45.477Z,930.54
2016-10-18T04:48:45.522Z,930.52
2016-10-18T04:49:45.575Z,930.5
2016-10-18T04:50:45.652Z,930.48
2016-10-18T04:51:45.684Z,930.46
2016-10-18T04:52:45.746Z,930.45
2016-10-18T04:53:45.786Z,930.42
2016-10-18T04:54:45.846Z,930.43
2016-10-18T04:55:45.889Z,930.33
2016-10-18T04:56:46.001Z,930.31
2016-10-18T04:57:45.997Z,930.28
2016-10-18T04:58:46.075Z,930.25
2016-10-18T04:59:46.118Z,930.21
2016-10-18T05:00:46.163Z,930.16
2016-10-18T05:01:46.239Z,930.15
2016-10-18T05:02:46.271Z,930.14
2016-10-18T05:03:46.330Z,930.08
2016-10-18T05:04:46.394Z,930.04
2016-10-18T05:05:46.437Z,930
2016-10-18T05:06:46.477Z,930.01
2016-10-18T05:07:46.574Z,930.03
2016-10-18T05:08:46.595Z,930.07
2016-10-18T05:09:46.639Z,930.13
2016-10-18T05:10:46.681Z,930.12
2016-10-18T05:11:46.754Z,930.18
2016-10-18T05:12:46.807Z,930.12
2016-10-18T05:13:46.854Z,930.1
2016-10-18T05:14:46.921Z,930.05
2016-10-18T05:15:46.959Z,930.02
2016-10-18T05:16:47.016Z,929.97
2016-10-18T05:17:47.106Z,929.92
2016-10-18T05:18:47.135Z,929.94
2016-10-18T05:19:47.218Z,929.88
2016-10-18T05:20:47.231Z,929.84
2016-10-18T05:21:47.294Z,929.83
2016-10-18T05:22:47.323Z,929.78
2016-10-18T05:23:47.371Z,929.77
2016-10-18T05:24:47.424Z,929.78
2016-10-18T05:25:47.498Z,929.79
2016-10-18T05:26:47.563Z,929.79
2016-10-18T05:27:47.584Z,929.82
2016-10-18T05:28:47.688Z,929.8
2016-10-18T05:29:47.689Z,929.82
2016-10-18T05:30:47.764Z,929.79
2016-10-18T05:31:47.795Z,929.77
2016-10-18T05:32:47.855Z,929.77
2016-10-18T05:33:47.902Z,929.77
2016-10-18T05:34:47.960Z,929.74
2016-10-18T05:35:48.035Z,929.74
2016-10-18T05:36:48.071Z,929.72
2016-10-18T05:37:48.140Z,929.71
2016-10-18T05:38:48.194Z,929.71
2016-10-18T05:39:48.247Z,929.69
2016-10-18T05:40:48.303Z,929.69
2016-10-18T05:41:48.330Z,929.66
2016-10-18T05:42:48.381Z,929.69
2016-10-18T05:43:48.459Z,929.7
2016-10-18T05:44:48.499Z,929.75
2016-10-18T05:45:48.568Z,929.78
2016-10-18T05:46:48.645Z,929.8
2016-10-18T05:47:48.649Z,929.8
2016-10-18T05:48:48.727Z,929.8
2016-10-18T05:49:48.779Z,929.78
2016-10-18T05:50:48.807Z,929.78
2016-10-18T05:51:48.871Z,929.78
2016-10-18T05:52:48.912Z,929.75
2016-10-18T05:53:48.978Z,929.71
2016-10-18T05:54:49.045Z,929.69
2016-10-18T05:55:49.076Z,929.67
2016-10-18T05:56:49.123Z,929.65
2016-10-18T05:57:49.195Z,929.64
2016-10-18T05:58:49.234Z,929.62
2016-10-18T05:59:49.298Z,929.64
2016-10-18T06:00:49.394Z,929.66
2016-10-18T06:01:49.417Z,929.69
2016-10-18T06:02:49.473Z,929.72
2016-10-18T06:03:49.510Z,929.71
2016-10-18T06:04:49.573Z,929.74
2016-10-18T06:05:49.610Z,929.67
2016-10-18T06:06:49.687Z,929.67
2016-10-18T06:07:49.732Z,929.65
2016-10-18T06:08:49.781Z,929.58
2016-10-18T06:09:49.823Z,929.57
2016-10-18T06:10:49.892Z,929.56
2016-10-18T06:11:49.937Z,929.54
2016-10-18T06:12:49.994Z,929.53
2016-10-18T06:13:50.038Z,929.49
2016-10-18T06:14:50.103Z,929.48
2016-10-18T06:15:50.161Z,929.45
2016-10-18T06:16:50.196Z,929.4
2016-10-18T06:17:50.250Z,929.39
2016-10-18T06:18:50.311Z,929.44
2016-10-18T06:19:50.351Z,929.41
2016-10-18T06:20:50.415Z,929.37
2016-10-18T06:21:50.464Z,929.34
2016-10-18T06:22:50.529Z,929.35
2016-10-18T06:23:50.565Z,929.34
2016-10-18T06:24:50.646Z,929.3
2016-10-18T06:25:50.675Z,929.3
2016-10-18T06:26:50.743Z,929.27
2016-10-18T06:27:50.780Z,929.24
2016-10-18T06:28:50.832Z,929.25
2016-10-18T06:29:50.914Z,929.19
2016-10-18T06:30:50.952Z,929.21
2016-10-18T06:31:51.010Z,929.15
2016-10-18T06:32:51.080Z,929.21
2016-10-18T06:33:51.102Z,929.17
2016-10-18T06:34:51.162Z,929.22
2016-10-18T06:35:51.219Z,929.23
2016-10-18T06:36:51.275Z,929.28
2016-10-18T06:37:51.318Z,929.28
2016-10-18T06:38:51.363Z,929.27
2016-10-18T06:39:51.445Z,929.27
2016-10-18T06:40:51.499Z,929.25
2016-10-18T06:41:51.558Z,929.27
2016-10-18T06:42:51.612Z,929.25
2016-10-18T06:43:51.648Z,929.22
2016-10-18T06:44:51.687Z,929.28
2016-10-18T06:45:51.851Z,929.22
2016-10-18T06:46:51.790Z,929.25
2016-10-18T06:47:51.872Z,929.27
2016-10-18T06:48:51.898Z,929.29
2016-10-18T06:49:51.951Z,929.35
2016-10-18T06:50:52.029Z,929.33
2016-10-18T06:51:52.105Z,929.39
2016-10-18T06:52:52.132Z,929.38
2016-10-18T06:53:52.175Z,929.41
2016-10-18T06:54:52.243Z,929.41
2016-10-18T06:55:52.303Z,929.36
2016-10-18T06:56:52.321Z,929.41
2016-10-18T06:57:52.385Z,929.39
2016-10-18T06:58:52.429Z,929.41
2016-10-18T06:59:52.486Z,929.4
2016-10-18T07:00:52.546Z,929.42
2016-10-18T07:01:52.615Z,929.46
2016-10-18T07:02:52.688Z,929.44
2016-10-18T07:03:52.788Z,929.46
2016-10-18T07:04:52.746Z,929.48
2016-10-18T07:05:52.801Z,929.48
2016-10-18T07:06:52.857Z,929.45
2016-10-18T07:07:52.991Z,929.42
2016-10-18T07:08:53.015Z,929.38
2016-10-18T07:09:53.028Z,929.39
2016-10-18T07:10:53.124Z,929.39
2016-10-18T07:11:53.134Z,929.42
2016-10-18T07:12:53.197Z,929.41
2016-10-18T07:13:53.252Z,929.42
2016-10-18T07:16:07.539Z,929.44
2016-10-18T07:18:21.885Z,929.47
2016-10-18T07:19:21.950Z,929.48
2016-10-18T07:20:22.018Z,929.46
2016-10-18T07:21:22.072Z,929.5
2016-10-18T07:22:22.096Z,929.46
2016-10-18T07:23:22.155Z,929.47
2016-10-18T07:24:22.221Z,929.47
2016-10-18T07:25:22.268Z,929.43
2016-10-18T07:26:22.315Z,929.43
2016-10-18T07:27:22.367Z,929.45
2016-10-18T07:28:22.444Z,929.44
2016-10-18T07:29:22.482Z,929.43
2016-10-18T07:30:22.550Z,929.42
2016-10-18T07:31:22.607Z,929.41
2016-10-18T07:32:22.649Z,929.39
2016-10-18T07:33:22.683Z,929.35
2016-10-18T07:34:22.735Z,929.39
2016-10-18T07:35:22.804Z,929.34
2016-10-18T07:36:22.852Z,929.35
2016-10-18T07:37:22.907Z,929.32
2016-10-18T07:38:22.951Z,929.29
2016-10-18T07:39:23.029Z,929.28
2016-10-18T07:40:23.072Z,929.21
2016-10-18T07:41:23.138Z,929.2
2016-10-18T07:42:23.161Z,929.22
2016-10-18T07:43:23.232Z,929.21
2016-10-18T07:44:23.269Z,929.24
2016-10-18T07:45:23.357Z,929.26
2016-10-18T07:46:23.381Z,929.25
2016-10-18T07:47:23.482Z,929.27
2016-10-18T07:48:23.487Z,929.26
2016-10-18T07:49:23.555Z,929.24
2016-10-18T07:50:23.595Z,929.21
2016-10-18T07:51:23.643Z,929.28
2016-10-18T07:52:23.697Z,929.29
2016-10-18T07:53:23.776Z,929.3
2016-10-18T07:54:23.826Z,929.3
2016-10-18T07:55:23.867Z,929.29
2016-10-18T07:56:23.915Z,929.3
2016-10-18T07:57:23.965Z,929.32
2016-10-18T07:58:24.015Z,929.33
2016-10-18T07:59:24.095Z,929.4
2016-10-18T08:00:24.130Z,929.37
2016-10-18T08:01:24.185Z,929.4
2016-10-18T08:02:24.230Z,929.36
2016-10-18T08:03:24.305Z,929.36
2016-10-18T08:04:24.365Z,929.39
2016-10-18T08:05:24.441Z,929.4
2016-10-18T08:06:24.444Z,929.34
2016-10-18T08:07:24.502Z,929.33
2016-10-18T08:08:24.566Z,929.34
2016-10-18T08:09:24.636Z,929.34
2016-10-18T08:10:24.670Z,929.33
2016-10-18T08:11:24.736Z,929.34
2016-10-18T08:12:24.793Z,929.34
2016-10-18T08:13:24.818Z,929.32
2016-10-18T08:14:24.884Z,929.27
2016-10-18T08:15:24.934Z,929.26
2016-10-18T08:16:24.980Z,929.22
2016-10-18T08:17:25.057Z,929.25
2016-10-18T08:18:25.087Z,929.25
2016-10-18T08:19:25.201Z,929.27
2016-10-18T08:20:25.194Z,929.26
2016-10-18T08:21:25.246Z,929.26
2016-10-18T08:22:25.326Z,929.31
2016-10-18T08:23:25.387Z,929.32
2016-10-18T08:24:25.418Z,929.29
2016-10-18T08:25:25.493Z,929.29
2016-10-18T08:26:25.513Z,929.3
2016-10-18T08:27:25.568Z,929.29
2016-10-18T08:28:25.624Z,929.22
2016-10-18T08:29:25.690Z,929.24
2016-10-18T08:30:25.737Z,929.25
2016-10-18T08:31:25.798Z,929.2
2016-10-18T08:32:25.862Z,929.21
2016-10-18T08:33:25.893Z,929.23
2016-10-18T08:34:25.954Z,929.28
2016-10-18T08:35:25.991Z,929.25
2016-10-18T08:36:26.044Z,929.25
2016-10-18T08:37:26.113Z,929.25
2016-10-18T08:38:26.159Z,929.26
2016-10-18T08:39:26.218Z,929.25
2016-10-18T08:40:26.288Z,929.27
2016-10-18T08:41:26.328Z,929.24
2016-10-18T08:42:26.367Z,929.26
2016-10-18T08:43:26.418Z,929.21
2016-10-18T08:44:26.478Z,929.2
2016-10-18T08:45:26.536Z,929.19
2016-10-18T08:46:26.608Z,929.17
2016-10-18T08:47:26.632Z,929.23
2016-10-18T08:48:26.710Z,929.18
2016-10-18T08:49:26.748Z,929.2
2016-10-18T08:50:26.808Z,929.19
2016-10-18T08:51:26.900Z,929.19
2016-10-18T08:52:26.920Z,929.15
2016-10-18T08:53:26.948Z,929.15
2016-10-18T08:54:27.038Z,929.14
2016-10-18T08:55:27.102Z,929.12
2016-10-18T08:56:27.738Z,929.13
2016-10-18T08:57:27.776Z,929.15
2016-10-18T08:58:27.821Z,929.13
2016-10-18T08:59:27.517Z,929.1
2016-10-18T09:00:27.551Z,929.08
2016-10-18T09:01:27.575Z,929.08
2016-10-18T09:02:27.640Z,929.01
2016-10-18T09:03:27.499Z,929.04
2016-10-18T09:04:27.553Z,929.01
2016-10-18T09:05:27.587Z,928.99
2016-10-18T09:06:27.640Z,928.98
2016-10-18T09:07:27.720Z,929.01
2016-10-18T09:08:27.774Z,928.96
2016-10-18T09:10:53.581Z,928.97
2016-10-18T09:11:28.550Z,928.98
2016-10-18T09:12:28.563Z,929.03
2016-10-18T09:14:28.686Z,928.98
2016-10-18T09:19:54.367Z,928.95
2016-10-18T09:20:54.471Z,928.97
2016-10-18T09:21:54.448Z,929.01
2016-10-18T09:22:54.492Z,929.01
2016-10-18T09:23:54.533Z,929.02
2016-10-18T09:24:54.582Z,929
2016-10-18T09:25:54.642Z,929.08
2016-10-18T09:26:54.695Z,929.07
2016-10-18T09:27:54.799Z,929.06
2016-10-18T09:28:54.819Z,929.11
2016-10-18T09:29:54.856Z,929.1
2016-10-18T09:30:54.910Z,929.12
2016-10-18T09:31:54.958Z,929.13
2016-10-18T09:32:55.024Z,929.11
2016-10-18T09:33:55.087Z,929.12
2016-10-18T09:34:55.152Z,929.15
2016-10-18T09:35:55.184Z,929.12
2016-10-18T09:36:55.234Z,929.09
2016-10-18T09:37:55.493Z,929.08
2016-10-18T09:38:55.354Z,929.12
2016-10-18T09:39:55.398Z,929.11
2016-10-18T09:40:55.466Z,929.12
2016-10-18T09:41:55.527Z,929.05
2016-10-18T09:42:55.557Z,929.08
2016-10-18T09:43:55.619Z,929.04
2016-10-18T09:44:55.650Z,929.02
2016-10-18T09:45:55.707Z,928.99
2016-10-18T09:46:55.793Z,928.97
2016-10-18T09:47:55.818Z,928.94
2016-10-18T09:48:55.901Z,928.96
2016-10-18T09:49:55.923Z,928.95
2016-10-18T09:50:55.998Z,928.96
2016-10-18T09:51:56.141Z,928.97
2016-10-18T09:52:56.101Z,928.99
2016-10-18T09:53:56.137Z,929.03
2016-10-18T09:54:56.804Z,929
2016-10-18T09:55:56.864Z,929.03
2016-10-18T09:56:56.933Z,929.05
2016-10-18T09:58:00.973Z,929.08
2016-10-18T09:59:01.029Z,929.05
2016-10-18T10:00:01.939Z,929.05
2016-10-18T10:01:01.956Z,929.07
2016-10-18T10:03:18.739Z,929.04
2016-10-18T10:04:18.792Z,929.06
2016-10-18T10:05:18.847Z,929.1
2016-10-18T10:06:18.901Z,929.08
2016-10-18T10:07:18.955Z,929.07
2016-10-18T10:08:34.787Z,929.1
2016-10-18T10:09:34.817Z,929.11
2016-10-18T10:10:34.865Z,929.13
2016-10-18T10:11:33.705Z,929.12
2016-10-18T10:12:33.783Z,929.13
2016-10-18T10:13:53.843Z,929.14
2016-10-18T10:14:52.871Z,929.12
2016-10-18T10:15:36.777Z,929.15
2016-10-18T10:16:33.809Z,929.15
2016-10-18T10:19:41.862Z,929.18
2016-10-18T10:20:41.925Z,929.18
2016-10-18T10:21:41.819Z,929.14
2016-10-18T10:22:41.815Z,929.13
2016-10-18T10:27:49.807Z,929.1
2016-10-18T10:28:49.891Z,929.19
2016-10-18T10:29:54.740Z,929.15
2016-10-18T10:31:16.745Z,929.14
2016-10-18T10:32:16.795Z,929.11
2016-10-18T10:33:16.858Z,929.15
2016-10-18T10:37:08.863Z,929.05
2016-10-18T10:38:08.903Z,929.05
2016-10-18T10:39:07.735Z,929.07
2016-10-18T10:40:12.830Z,929.04
2016-10-18T10:41:12.885Z,929.04
2016-10-18T10:43:11.785Z,929.07
2016-10-18T10:44:11.836Z,929.06
2016-10-18T10:45:11.912Z,929.09
2016-10-18T10:46:11.753Z,929.12
2016-10-18T10:47:11.794Z,929.14
2016-10-18T10:48:11.851Z,929.16
2016-10-18T10:49:11.901Z,929.19
2016-10-18T10:50:11.982Z,929.19
2016-10-18T10:51:12.020Z,929.17
2016-10-18T10:52:12.069Z,929.17
2016-10-18T10:53:12.135Z,929.2
2016-10-18T10:54:12.781Z,929.22
2016-10-18T10:55:12.835Z,929.21
2016-10-18T10:56:12.889Z,929.23
2016-10-18T10:57:12.961Z,929.26
2016-10-18T10:58:13.013Z,929.25
2016-10-18T10:59:13.059Z,929.22
2016-10-18T11:00:13.112Z,929.22
2016-10-18T11:01:13.195Z,929.19
2016-10-18T11:02:12.832Z,929.18
2016-10-18T11:03:12.870Z,929.22
2016-10-18T11:04:12.947Z,929.2
2016-10-18T11:05:12.790Z,929.2
2016-10-18T11:06:12.883Z,929.21
2016-10-18T11:07:12.911Z,929.22
2016-10-18T11:08:12.965Z,929.18
2016-10-18T11:09:13.000Z,929.19
2016-10-18T11:10:13.079Z,929.23
2016-10-18T11:11:13.104Z,929.25
2016-10-18T11:12:13.817Z,929.22
2016-10-18T11:13:13.819Z,929.25
2016-10-18T11:14:29.861Z,929.23
2016-10-18T11:15:13.962Z,929.25
2016-10-18T11:16:14.001Z,929.25
2016-10-18T11:17:14.066Z,929.22
2016-10-18T11:18:14.910Z,929.21
2016-10-18T11:19:14.974Z,929.18
2016-10-18T11:20:13.827Z,929.18
2016-10-18T11:21:13.889Z,929.17
2016-10-18T11:22:16.795Z,929.16
2016-10-18T11:23:13.777Z,929.16
2016-10-18T11:24:14.046Z,929.14
2016-10-18T11:25:14.232Z,929.14
2016-10-18T11:26:14.172Z,929.14
2016-10-18T11:27:14.250Z,929.14
2016-10-18T11:36:41.670Z,929.04
2016-10-18T11:37:41.509Z,929.07
2016-10-18T11:38:41.555Z,929.11
2016-10-18T11:39:41.844Z,929.11
2016-10-18T11:40:41.675Z,929.09
2016-10-18T11:41:41.737Z,929.12
2016-10-18T11:42:41.987Z,929.14
2016-10-18T11:43:41.892Z,929.16
2016-10-18T11:44:41.906Z,929.15
2016-10-18T11:47:45.854Z,929.18
2016-10-18T11:48:32.824Z,929.19
2016-10-18T11:49:32.887Z,929.2
2016-10-18T11:50:20.816Z,929.19
2016-10-18T11:51:20.881Z,929.25
2016-10-18T11:54:28.817Z,929.3
2016-10-18T11:55:28.805Z,929.32
2016-10-18T11:56:25.862Z,929.27
2016-10-18T11:57:31.982Z,929.29
2016-10-18T11:58:58.867Z,929.3
2016-10-18T12:00:15.832Z,929.29
2016-10-18T12:02:20.798Z,929.3
2016-10-18T12:04:59.892Z,929.27
2016-10-18T12:07:34.893Z,929.32
2016-10-18T12:10:20.825Z,929.33
2016-10-18T12:12:20.501Z,929.35
2016-10-18T12:13:20.366Z,929.31
2016-10-18T12:14:20.421Z,929.31
2016-10-18T12:15:20.491Z,929.35
2016-10-18T12:16:20.927Z,929.32
2016-10-18T12:17:20.590Z,929.35
2016-10-18T12:18:20.860Z,929.41
2016-10-18T12:19:20.700Z,929.37
2016-10-18T12:20:20.760Z,929.34
2016-10-18T12:21:20.823Z,929.32
2016-10-18T12:22:21.155Z,929.36
2016-10-18T12:23:21.592Z,929.32
2016-10-18T12:24:20.981Z,929.3
2016-10-18T12:25:21.093Z,929.3
2016-10-18T12:26:21.101Z,929.35
2016-10-18T12:27:21.211Z,929.28
2016-10-18T12:28:21.853Z,929.3
2016-10-18T12:29:21.926Z,929.31
2016-10-18T12:30:21.571Z,929.27
2016-10-18T12:31:21.596Z,929.3
2016-10-18T12:32:21.636Z,929.27
2016-10-18T12:33:21.518Z,929.3
2016-10-18T12:34:21.544Z,929.38
2016-10-18T12:35:21.662Z,929.37
2016-10-18T12:36:21.660Z,929.38
2016-10-18T12:37:21.725Z,929.4
2016-10-18T12:38:21.778Z,929.35
2016-10-18T12:39:34.608Z,929.38
2016-10-18T12:40:34.677Z,929.39
2016-10-18T12:41:30.475Z,929.35
2016-10-18T12:42:29.770Z,929.35
2016-10-18T12:43:30.605Z,929.36
2016-10-18T12:44:30.675Z,929.36
2016-10-18T12:45:29.491Z,929.35
2016-10-18T12:47:35.686Z,929.26
2016-10-18T12:48:29.667Z,929.28
2016-10-18T12:49:29.536Z,929.29
2016-10-18T12:53:37.461Z,929.22
2016-10-18T12:54:37.564Z,929.16
2016-10-18T12:55:37.577Z,929.19
2016-10-18T12:58:37.513Z,929.15
2016-10-18T12:59:59.537Z,929.18
2016-10-18T13:01:21.552Z,929.21
2016-10-18T13:02:27.660Z,929.25
2016-10-18T13:04:29.516Z,929.2
2016-10-18T13:05:32.618Z,929.23
2016-10-18T13:17:26.581Z,929.16
2016-10-18T13:18:26.630Z,929.16
2016-10-18T13:19:39.579Z,929.14
2016-10-18T13:21:39.509Z,929.2
2016-10-18T13:22:56.558Z,929.15
2016-10-18T13:24:57.485Z,929.21
2016-10-18T13:25:57.524Z,929.18
2016-10-18T13:29:26.505Z,929.15
2016-10-18T13:30:26.583Z,929.08
2016-10-18T13:31:26.637Z,929.09
2016-10-18T13:32:31.559Z,929.09
2016-10-18T13:33:25.541Z,929.09
2016-10-18T13:34:25.595Z,929.04
2016-10-18T13:35:25.664Z,929.03
2016-10-18T13:36:25.712Z,929.06
2016-10-18T13:37:25.567Z,929.01